sensor_id;sensor_type;location;lat;lon;timestamp;P1;durP1;ratioP1;P2;durP2;ratioP2
15968;SDS011;8085;53.472;9.794;2023-09-18T00:01:20;5.00;;;4.45;;
15968;SDS011;8085;53.472;9.794;2023-09-18T00:03:47;5.28;;;4.38;;
15968;SDS011;8085;53.472;9.794;2023-09-18T00:06:14;4.28;;;3.88;;
15968;SDS011;8085;53.472;9.794;2023-09-18T00:08:41;4.80;;;4.28;;
15968;SDS011;8085;53.472;9.794;2023-09-18T00:11:10;8.00;;;4.40;;
15968;SDS011;8085;53.472;9.794;2023-09-18T00:13:37;5.75;;;4.05;;
15968;SDS011;8085;53.472;9.794;2023-09-18T00:16:04;4.93;;;4.43;;
15968;SDS011;8085;53.472;9.794;2023-09-18T00:18:31;5.18;;;4.10;;
15968;SDS011;8085;53.472;9.794;2023-09-18T00:20:58;7.22;;;4.25;;
15968;SDS011;8085;53.472;9.794;2023-09-18T00:23:25;5.00;;;4.50;;
15968;SDS011;8085;53.472;9.794;2023-09-18T00:25:52;5.00;;;4.60;;
15968;SDS011;8085;53.472;9.794;2023-09-18T00:28:20;5.80;;;4.75;;
15968;SDS011;8085;53.472;9.794;2023-09-18T00:30:47;6.75;;;4.43;;
15968;SDS011;8085;53.472;9.794;2023-09-18T00:33:15;5.00;;;4.60;;
15968;SDS011;8085;53.472;9.794;2023-09-18T00:35:45;5.63;;;4.72;;
15968;SDS011;8085;53.472;9.794;2023-09-18T00:38:12;5.28;;;4.78;;
15968;SDS011;8085;53.472;9.794;2023-09-18T00:40:39;6.82;;;4.80;;
15968;SDS011;8085;53.472;9.794;2023-09-18T00:43:07;6.18;;;4.68;;
15968;SDS011;8085;53.472;9.794;2023-09-18T00:45:36;5.13;;;4.70;;
15968;SDS011;8085;53.472;9.794;2023-09-18T00:48:07;5.07;;;4.50;;
15968;SDS011;8085;53.472;9.794;2023-09-18T00:50:34;7.00;;;5.10;;
15968;SDS011;8085;53.472;9.794;2023-09-18T00:53:01;5.90;;;4.93;;
15968;SDS011;8085;53.472;9.794;2023-09-18T00:55:29;4.90;;;4.47;;
15968;SDS011;8085;53.472;9.794;2023-09-18T00:57:57;5.53;;;4.93;;
15968;SDS011;8085;53.472;9.794;2023-09-18T01:00:24;5.15;;;4.65;;
15968;SDS011;8085;53.472;9.794;2023-09-18T01:02:53;5.10;;;4.60;;
15968;SDS011;8085;53.472;9.794;2023-09-18T01:05:20;6.35;;;5.20;;
15968;SDS011;8085;53.472;9.794;2023-09-18T01:07:47;5.22;;;4.68;;
15968;SDS011;8085;53.472;9.794;2023-09-18T01:10:14;4.82;;;4.35;;
15968;SDS011;8085;53.472;9.794;2023-09-18T01:12:44;4.85;;;4.32;;
15968;SDS011;8085;53.472;9.794;2023-09-18T01:15:14;4.93;;;4.30;;
15968;SDS011;8085;53.472;9.794;2023-09-18T01:17:48;5.18;;;4.38;;
15968;SDS011;8085;53.472;9.794;2023-09-18T01:20:17;6.70;;;3.72;;
15968;SDS011;8085;53.472;9.794;2023-09-18T01:22:46;5.40;;;4.90;;
15968;SDS011;8085;53.472;9.794;2023-09-18T01:25:14;6.15;;;4.80;;
15968;SDS011;8085;53.472;9.794;2023-09-18T01:27:41;5.65;;;4.85;;
15968;SDS011;8085;53.472;9.794;2023-09-18T01:30:08;4.97;;;4.47;;
15968;SDS011;8085;53.472;9.794;2023-09-18T01:32:37;5.07;;;4.43;;
15968;SDS011;8085;53.472;9.794;2023-09-18T01:35:05;4.88;;;4.47;;
15968;SDS011;8085;53.472;9.794;2023-09-18T01:37:34;4.68;;;4.22;;
15968;SDS011;8085;53.472;9.794;2023-09-18T01:40:05;4.93;;;4.15;;
15968;SDS011;8085;53.472;9.794;2023-09-18T01:42:33;6.53;;;4.32;;
15968;SDS011;8085;53.472;9.794;2023-09-18T01:45:01;6.20;;;4.45;;
15968;SDS011;8085;53.472;9.794;2023-09-18T01:47:30;5.32;;;4.40;;
15968;SDS011;8085;53.472;9.794;2023-09-18T01:49:57;6.32;;;4.07;;
15968;SDS011;8085;53.472;9.794;2023-09-18T01:52:24;4.80;;;4.40;;
15968;SDS011;8085;53.472;9.794;2023-09-18T01:54:51;6.80;;;4.90;;
15968;SDS011;8085;53.472;9.794;2023-09-18T01:57:19;5.60;;;4.93;;
15968;SDS011;8085;53.472;9.794;2023-09-18T01:59:46;4.65;;;4.25;;
15968;SDS011;8085;53.472;9.794;2023-09-18T02:02:13;8.15;;;4.93;;
15968;SDS011;8085;53.472;9.794;2023-09-18T02:04:40;5.75;;;4.50;;
15968;SDS011;8085;53.472;9.794;2023-09-18T02:07:08;5.93;;;5.10;;
15968;SDS011;8085;53.472;9.794;2023-09-18T02:09:35;5.45;;;4.72;;
15968;SDS011;8085;53.472;9.794;2023-09-18T02:12:03;5.00;;;4.53;;
15968;SDS011;8085;53.472;9.794;2023-09-18T02:14:32;5.47;;;4.47;;
15968;SDS011;8085;53.472;9.794;2023-09-18T02:16:59;5.15;;;4.68;;
15968;SDS011;8085;53.472;9.794;2023-09-18T02:19:26;5.47;;;4.97;;
15968;SDS011;8085;53.472;9.794;2023-09-18T02:21:55;5.05;;;4.55;;
15968;SDS011;8085;53.472;9.794;2023-09-18T02:24:22;6.53;;;5.05;;
15968;SDS011;8085;53.472;9.794;2023-09-18T02:26:49;5.03;;;4.63;;
15968;SDS011;8085;53.472;9.794;2023-09-18T02:29:16;5.25;;;4.75;;
15968;SDS011;8085;53.472;9.794;2023-09-18T02:31:45;4.88;;;4.47;;
15968;SDS011;8085;53.472;9.794;2023-09-18T02:34:12;4.63;;;4.22;;
15968;SDS011;8085;53.472;9.794;2023-09-18T02:36:39;6.65;;;4.80;;
15968;SDS011;8085;53.472;9.794;2023-09-18T02:39:06;5.53;;;4.70;;
15968;SDS011;8085;53.472;9.794;2023-09-18T02:41:32;4.75;;;4.35;;
15968;SDS011;8085;53.472;9.794;2023-09-18T02:43:59;6.07;;;4.40;;
15968;SDS011;8085;53.472;9.794;2023-09-18T02:46:26;5.15;;;4.65;;
15968;SDS011;8085;53.472;9.794;2023-09-18T02:48:55;6.15;;;4.18;;
15968;SDS011;8085;53.472;9.794;2023-09-18T02:51:22;6.97;;;4.15;;
15968;SDS011;8085;53.472;9.794;2023-09-18T02:53:49;5.28;;;4.15;;
15968;SDS011;8085;53.472;9.794;2023-09-18T02:56:16;6.82;;;3.95;;
15968;SDS011;8085;53.472;9.794;2023-09-18T02:58:43;5.10;;;4.63;;
15968;SDS011;8085;53.472;9.794;2023-09-18T03:01:10;5.20;;;4.63;;
15968;SDS011;8085;53.472;9.794;2023-09-18T03:03:37;5.18;;;4.68;;
15968;SDS011;8085;53.472;9.794;2023-09-18T03:06:08;6.57;;;4.93;;
15968;SDS011;8085;53.472;9.794;2023-09-18T03:08:35;5.32;;;4.38;;
15968;SDS011;8085;53.472;9.794;2023-09-18T03:11:02;6.88;;;5.20;;
15968;SDS011;8085;53.472;9.794;2023-09-18T03:13:29;5.20;;;4.68;;
15968;SDS011;8085;53.472;9.794;2023-09-18T03:15:57;5.07;;;4.55;;
15968;SDS011;8085;53.472;9.794;2023-09-18T03:18:23;5.53;;;4.35;;
15968;SDS011;8085;53.472;9.794;2023-09-18T03:20:50;5.00;;;4.50;;
15968;SDS011;8085;53.472;9.794;2023-09-18T03:23:19;5.60;;;4.43;;
15968;SDS011;8085;53.472;9.794;2023-09-18T03:25:45;4.78;;;4.07;;
15968;SDS011;8085;53.472;9.794;2023-09-18T03:28:12;5.78;;;4.60;;
15968;SDS011;8085;53.472;9.794;2023-09-18T03:30:39;5.10;;;4.60;;
15968;SDS011;8085;53.472;9.794;2023-09-18T03:33:06;5.03;;;4.53;;
15968;SDS011;8085;53.472;9.794;2023-09-18T03:35:34;5.32;;;4.82;;
15968;SDS011;8085;53.472;9.794;2023-09-18T03:38:12;6.03;;;5.43;;
15968;SDS011;8085;53.472;9.794;2023-09-18T03:40:40;6.15;;;4.90;;
15968;SDS011;8085;53.472;9.794;2023-09-18T03:43:07;5.28;;;4.78;;
15968;SDS011;8085;53.472;9.794;2023-09-18T03:45:37;7.28;;;4.68;;
15968;SDS011;8085;53.472;9.794;2023-09-18T03:48:04;5.22;;;4.72;;
15968;SDS011;8085;53.472;9.794;2023-09-18T03:50:31;5.18;;;4.68;;
15968;SDS011;8085;53.472;9.794;2023-09-18T03:52:58;5.40;;;4.80;;
15968;SDS011;8085;53.472;9.794;2023-09-18T03:55:25;5.25;;;4.75;;
15968;SDS011;8085;53.472;9.794;2023-09-18T03:57:53;5.55;;;4.45;;
15968;SDS011;8085;53.472;9.794;2023-09-18T04:00:21;5.20;;;4.70;;
15968;SDS011;8085;53.472;9.794;2023-09-18T04:02:48;5.53;;;4.88;;
15968;SDS011;8085;53.472;9.794;2023-09-18T04:05:15;5.55;;;4.63;;
15968;SDS011;8085;53.472;9.794;2023-09-18T04:07:42;4.78;;;4.35;;
15968;SDS011;8085;53.472;9.794;2023-09-18T04:10:11;4.63;;;4.20;;
15968;SDS011;8085;53.472;9.794;2023-09-18T04:12:43;5.22;;;4.65;;
15968;SDS011;8085;53.472;9.794;2023-09-18T04:15:13;5.63;;;5.07;;
15968;SDS011;8085;53.472;9.794;2023-09-18T04:17:42;5.88;;;4.82;;
15968;SDS011;8085;53.472;9.794;2023-09-18T04:20:09;6.40;;;4.60;;
15968;SDS011;8085;53.472;9.794;2023-09-18T04:22:41;5.18;;;4.68;;
15968;SDS011;8085;53.472;9.794;2023-09-18T04:25:10;5.47;;;4.97;;
15968;SDS011;8085;53.472;9.794;2023-09-18T04:27:37;5.22;;;4.70;;
15968;SDS011;8085;53.472;9.794;2023-09-18T04:30:05;6.20;;;4.85;;
15968;SDS011;8085;53.472;9.794;2023-09-18T04:32:35;7.07;;;4.47;;
15968;SDS011;8085;53.472;9.794;2023-09-18T04:35:03;6.30;;;4.45;;
15968;SDS011;8085;53.472;9.794;2023-09-18T04:37:31;7.47;;;4.93;;
15968;SDS011;8085;53.472;9.794;2023-09-18T04:42:29;7.25;;;5.30;;
15968;SDS011;8085;53.472;9.794;2023-09-18T04:44:56;7.68;;;4.97;;
15968;SDS011;8085;53.472;9.794;2023-09-18T04:47:23;10.60;;;5.53;;
15968;SDS011;8085;53.472;9.794;2023-09-18T04:49:51;6.30;;;5.28;;
15968;SDS011;8085;53.472;9.794;2023-09-18T04:52:18;5.63;;;5.03;;
15968;SDS011;8085;53.472;9.794;2023-09-18T04:54:45;7.45;;;5.45;;
15968;SDS011;8085;53.472;9.794;2023-09-18T04:57:12;6.22;;;5.30;;
15968;SDS011;8085;53.472;9.794;2023-09-18T04:59:39;9.73;;;4.82;;
15968;SDS011;8085;53.472;9.794;2023-09-18T05:02:06;7.35;;;5.35;;
15968;SDS011;8085;53.472;9.794;2023-09-18T05:04:33;5.78;;;5.00;;
15968;SDS011;8085;53.472;9.794;2023-09-18T05:07:01;6.05;;;5.43;;
15968;SDS011;8085;53.472;9.794;2023-09-18T05:09:28;6.03;;;4.95;;
15968;SDS011;8085;53.472;9.794;2023-09-18T05:11:56;7.18;;;4.97;;
15968;SDS011;8085;53.472;9.794;2023-09-18T05:14:23;7.15;;;5.30;;
15968;SDS011;8085;53.472;9.794;2023-09-18T05:16:50;10.20;;;4.95;;
15968;SDS011;8085;53.472;9.794;2023-09-18T05:19:17;5.47;;;4.97;;
15968;SDS011;8085;53.472;9.794;2023-09-18T05:21:44;9.02;;;5.05;;
15968;SDS011;8085;53.472;9.794;2023-09-18T05:24:13;7.13;;;5.93;;
15968;SDS011;8085;53.472;9.794;2023-09-18T05:26:39;6.25;;;5.35;;
15968;SDS011;8085;53.472;9.794;2023-09-18T05:29:06;5.72;;;4.90;;
15968;SDS011;8085;53.472;9.794;2023-09-18T05:31:35;5.35;;;4.85;;
15968;SDS011;8085;53.472;9.794;2023-09-18T05:34:02;5.68;;;5.10;;
15968;SDS011;8085;53.472;9.794;2023-09-18T05:36:29;6.35;;;5.38;;
15968;SDS011;8085;53.472;9.794;2023-09-18T05:38:56;6.05;;;5.45;;
15968;SDS011;8085;53.472;9.794;2023-09-18T05:41:24;6.40;;;5.50;;
15968;SDS011;8085;53.472;9.794;2023-09-18T05:46:20;7.47;;;4.60;;
15968;SDS011;8085;53.472;9.794;2023-09-18T05:48:47;5.65;;;4.93;;
15968;SDS011;8085;53.472;9.794;2023-09-18T05:51:14;7.07;;;4.70;;
15968;SDS011;8085;53.472;9.794;2023-09-18T05:53:41;6.20;;;4.82;;
15968;SDS011;8085;53.472;9.794;2023-09-18T05:56:08;6.35;;;4.80;;
15968;SDS011;8085;53.472;9.794;2023-09-18T05:58:36;6.43;;;4.88;;
15968;SDS011;8085;53.472;9.794;2023-09-18T06:01:04;10.68;;;4.97;;
15968;SDS011;8085;53.472;9.794;2023-09-18T06:03:31;8.35;;;5.53;;
15968;SDS011;8085;53.472;9.794;2023-09-18T06:06:00;8.98;;;5.00;;
15968;SDS011;8085;53.472;9.794;2023-09-18T06:08:28;5.72;;;4.78;;
15968;SDS011;8085;53.472;9.794;2023-09-18T06:10:55;6.75;;;5.13;;
15968;SDS011;8085;53.472;9.794;2023-09-18T06:13:23;5.20;;;4.40;;
15968;SDS011;8085;53.472;9.794;2023-09-18T06:15:52;4.93;;;4.20;;
15968;SDS011;8085;53.472;9.794;2023-09-18T06:18:20;5.38;;;4.88;;
15968;SDS011;8085;53.472;9.794;2023-09-18T06:20:47;4.80;;;4.38;;
15968;SDS011;8085;53.472;9.794;2023-09-18T06:23:14;6.40;;;4.40;;
15968;SDS011;8085;53.472;9.794;2023-09-18T06:25:41;5.00;;;4.47;;
15968;SDS011;8085;53.472;9.794;2023-09-18T06:28:08;6.18;;;4.22;;
15968;SDS011;8085;53.472;9.794;2023-09-18T06:30:35;7.57;;;4.05;;
15968;SDS011;8085;53.472;9.794;2023-09-18T06:33:04;4.90;;;4.40;;
15968;SDS011;8085;53.472;9.794;2023-09-18T06:35:31;7.18;;;4.13;;
15968;SDS011;8085;53.472;9.794;2023-09-18T06:37:57;5.47;;;4.35;;
15968;SDS011;8085;53.472;9.794;2023-09-18T06:40:25;6.43;;;4.65;;
15968;SDS011;8085;53.472;9.794;2023-09-18T06:42:52;5.63;;;4.38;;
15968;SDS011;8085;53.472;9.794;2023-09-18T06:45:25;5.07;;;4.40;;
15968;SDS011;8085;53.472;9.794;2023-09-18T06:47:52;5.50;;;4.35;;
15968;SDS011;8085;53.472;9.794;2023-09-18T06:50:20;6.18;;;4.30;;
15968;SDS011;8085;53.472;9.794;2023-09-18T06:52:47;5.65;;;4.65;;
15968;SDS011;8085;53.472;9.794;2023-09-18T06:55:14;6.10;;;4.00;;
15968;SDS011;8085;53.472;9.794;2023-09-18T06:57:42;9.30;;;4.53;;
15968;SDS011;8085;53.472;9.794;2023-09-18T07:00:09;6.47;;;4.60;;
15968;SDS011;8085;53.472;9.794;2023-09-18T07:02:39;5.80;;;4.30;;
15968;SDS011;8085;53.472;9.794;2023-09-18T07:05:06;6.47;;;4.18;;
15968;SDS011;8085;53.472;9.794;2023-09-18T07:07:35;4.80;;;4.30;;
15968;SDS011;8085;53.472;9.794;2023-09-18T07:10:01;6.60;;;4.20;;
15968;SDS011;8085;53.472;9.794;2023-09-18T07:12:29;7.63;;;4.22;;
15968;SDS011;8085;53.472;9.794;2023-09-18T07:14:56;4.70;;;4.30;;
15968;SDS011;8085;53.472;9.794;2023-09-18T07:17:24;4.15;;;3.50;;
15968;SDS011;8085;53.472;9.794;2023-09-18T07:19:51;5.13;;;4.40;;
15968;SDS011;8085;53.472;9.794;2023-09-18T07:22:18;6.45;;;4.10;;
15968;SDS011;8085;53.472;9.794;2023-09-18T07:24:46;4.10;;;3.63;;
15968;SDS011;8085;53.472;9.794;2023-09-18T07:27:13;7.40;;;4.00;;
15968;SDS011;8085;53.472;9.794;2023-09-18T07:29:40;4.50;;;4.10;;
15968;SDS011;8085;53.472;9.794;2023-09-18T07:32:07;6.03;;;3.85;;
15968;SDS011;8085;53.472;9.794;2023-09-18T07:34:34;4.22;;;3.83;;
15968;SDS011;8085;53.472;9.794;2023-09-18T07:37:01;4.10;;;3.78;;
15968;SDS011;8085;53.472;9.794;2023-09-18T07:39:28;4.60;;;3.88;;
15968;SDS011;8085;53.472;9.794;2023-09-18T07:41:56;6.28;;;3.70;;
15968;SDS011;8085;53.472;9.794;2023-09-18T07:44:23;4.43;;;4.03;;
15968;SDS011;8085;53.472;9.794;2023-09-18T07:46:50;4.80;;;4.03;;
15968;SDS011;8085;53.472;9.794;2023-09-18T07:49:19;5.63;;;3.97;;
15968;SDS011;8085;53.472;9.794;2023-09-18T07:51:46;4.32;;;3.90;;
15968;SDS011;8085;53.472;9.794;2023-09-18T07:54:14;6.65;;;4.35;;
15968;SDS011;8085;53.472;9.794;2023-09-18T07:56:41;4.18;;;3.60;;
15968;SDS011;8085;53.472;9.794;2023-09-18T07:59:10;7.32;;;3.83;;
15968;SDS011;8085;53.472;9.794;2023-09-18T08:01:36;5.47;;;3.72;;
15968;SDS011;8085;53.472;9.794;2023-09-18T08:04:03;4.03;;;3.63;;
15968;SDS011;8085;53.472;9.794;2023-09-18T08:06:31;7.82;;;4.03;;
15968;SDS011;8085;53.472;9.794;2023-09-18T08:08:57;4.80;;;3.75;;
15968;SDS011;8085;53.472;9.794;2023-09-18T08:11:24;5.05;;;3.92;;
15968;SDS011;8085;53.472;9.794;2023-09-18T08:13:51;4.70;;;3.92;;
15968;SDS011;8085;53.472;9.794;2023-09-18T08:16:19;4.80;;;3.88;;
15968;SDS011;8085;53.472;9.794;2023-09-18T08:18:46;4.25;;;3.85;;
15968;SDS011;8085;53.472;9.794;2023-09-18T08:21:13;4.30;;;3.72;;
15968;SDS011;8085;53.472;9.794;2023-09-18T08:23:41;3.97;;;3.60;;
15968;SDS011;8085;53.472;9.794;2023-09-18T08:26:08;4.47;;;4.03;;
15968;SDS011;8085;53.472;9.794;2023-09-18T08:28:35;4.18;;;3.78;;
15968;SDS011;8085;53.472;9.794;2023-09-18T08:31:08;5.07;;;3.80;;
15968;SDS011;8085;53.472;9.794;2023-09-18T08:33:36;7.45;;;3.97;;
15968;SDS011;8085;53.472;9.794;2023-09-18T08:36:03;4.72;;;3.40;;
15968;SDS011;8085;53.472;9.794;2023-09-18T08:38:31;4.78;;;3.60;;
15968;SDS011;8085;53.472;9.794;2023-09-18T08:40:58;5.25;;;3.50;;
15968;SDS011;8085;53.472;9.794;2023-09-18T08:43:25;4.65;;;3.83;;
15968;SDS011;8085;53.472;9.794;2023-09-18T08:45:54;4.55;;;3.40;;
15968;SDS011;8085;53.472;9.794;2023-09-18T08:48:26;4.57;;;3.60;;
15968;SDS011;8085;53.472;9.794;2023-09-18T08:51:01;3.63;;;3.13;;
15968;SDS011;8085;53.472;9.794;2023-09-18T08:53:29;6.85;;;3.25;;
15968;SDS011;8085;53.472;9.794;2023-09-18T08:55:57;4.05;;;3.55;;
15968;SDS011;8085;53.472;9.794;2023-09-18T08:58:26;8.52;;;3.50;;
15968;SDS011;8085;53.472;9.794;2023-09-18T09:00:54;5.00;;;3.20;;
15968;SDS011;8085;53.472;9.794;2023-09-18T09:03:22;3.28;;;2.97;;
15968;SDS011;8085;53.472;9.794;2023-09-18T09:05:49;3.90;;;3.58;;
15968;SDS011;8085;53.472;9.794;2023-09-18T09:08:17;3.63;;;3.17;;
15968;SDS011;8085;53.472;9.794;2023-09-18T09:10:45;5.30;;;3.47;;
15968;SDS011;8085;53.472;9.794;2023-09-18T09:13:13;6.25;;;3.47;;
15968;SDS011;8085;53.472;9.794;2023-09-18T09:15:43;10.50;;;3.25;;
15968;SDS011;8085;53.472;9.794;2023-09-18T09:18:12;3.47;;;2.83;;
15968;SDS011;8085;53.472;9.794;2023-09-18T09:20:41;5.30;;;2.90;;
15968;SDS011;8085;53.472;9.794;2023-09-18T09:23:19;5.57;;;3.13;;
15968;SDS011;8085;53.472;9.794;2023-09-18T09:25:46;3.17;;;2.88;;
15968;SDS011;8085;53.472;9.794;2023-09-18T09:28:13;4.43;;;3.33;;
15968;SDS011;8085;53.472;9.794;2023-09-18T09:30:41;4.72;;;2.90;;
15968;SDS011;8085;53.472;9.794;2023-09-18T09:33:10;5.50;;;3.03;;
15968;SDS011;8085;53.472;9.794;2023-09-18T09:35:38;4.95;;;3.00;;
15968;SDS011;8085;53.472;9.794;2023-09-18T09:38:07;5.18;;;2.65;;
15968;SDS011;8085;53.472;9.794;2023-09-18T09:40:38;4.97;;;2.72;;
15968;SDS011;8085;53.472;9.794;2023-09-18T09:43:07;5.53;;;2.65;;
15968;SDS011;8085;53.472;9.794;2023-09-18T09:45:35;4.75;;;2.80;;
15968;SDS011;8085;53.472;9.794;2023-09-18T09:48:03;4.10;;;2.72;;
15968;SDS011;8085;53.472;9.794;2023-09-18T09:50:31;6.28;;;2.65;;
15968;SDS011;8085;53.472;9.794;2023-09-18T09:52:59;8.18;;;3.10;;
15968;SDS011;8085;53.472;9.794;2023-09-18T09:55:28;6.95;;;2.55;;
15968;SDS011;8085;53.472;9.794;2023-09-18T09:57:57;5.90;;;3.15;;
15968;SDS011;8085;53.472;9.794;2023-09-18T10:00:26;3.80;;;3.03;;
15968;SDS011;8085;53.472;9.794;2023-09-18T10:02:58;3.80;;;2.85;;
15968;SDS011;8085;53.472;9.794;2023-09-18T10:05:28;3.95;;;3.03;;
15968;SDS011;8085;53.472;9.794;2023-09-18T10:07:59;5.20;;;2.85;;
15968;SDS011;8085;53.472;9.794;2023-09-18T10:10:29;7.50;;;3.05;;
15968;SDS011;8085;53.472;9.794;2023-09-18T10:13:12;4.97;;;2.92;;
15968;SDS011;8085;53.472;9.794;2023-09-18T10:15:44;6.90;;;2.90;;
15968;SDS011;8085;53.472;9.794;2023-09-18T10:18:24;6.22;;;2.75;;
15968;SDS011;8085;53.472;9.794;2023-09-18T10:20:56;5.55;;;2.67;;
15968;SDS011;8085;53.472;9.794;2023-09-18T10:23:32;3.10;;;2.80;;
15968;SDS011;8085;53.472;9.794;2023-09-18T10:26:05;4.72;;;2.90;;
15968;SDS011;8085;53.472;9.794;2023-09-18T10:28:35;9.80;;;2.95;;
15968;SDS011;8085;53.472;9.794;2023-09-18T10:31:03;7.00;;;2.63;;
15968;SDS011;8085;53.472;9.794;2023-09-18T10:33:31;4.38;;;2.92;;
15968;SDS011;8085;53.472;9.794;2023-09-18T10:35:58;5.55;;;2.80;;
15968;SDS011;8085;53.472;9.794;2023-09-18T10:38:29;5.97;;;2.70;;
15968;SDS011;8085;53.472;9.794;2023-09-18T10:40:57;7.28;;;3.03;;
15968;SDS011;8085;53.472;9.794;2023-09-18T10:43:25;5.10;;;2.80;;
15968;SDS011;8085;53.472;9.794;2023-09-18T10:45:53;7.10;;;2.70;;
15968;SDS011;8085;53.472;9.794;2023-09-18T10:48:21;5.88;;;3.25;;
15968;SDS011;8085;53.472;9.794;2023-09-18T10:50:50;4.75;;;2.55;;
15968;SDS011;8085;53.472;9.794;2023-09-18T10:53:18;4.95;;;2.97;;
15968;SDS011;8085;53.472;9.794;2023-09-18T10:55:46;5.10;;;2.72;;
15968;SDS011;8085;53.472;9.794;2023-09-18T10:58:23;9.50;;;2.80;;
15968;SDS011;8085;53.472;9.794;2023-09-18T11:00:50;4.13;;;2.35;;
15968;SDS011;8085;53.472;9.794;2023-09-18T11:03:21;5.00;;;2.47;;
15968;SDS011;8085;53.472;9.794;2023-09-18T11:05:49;6.00;;;2.60;;
15968;SDS011;8085;53.472;9.794;2023-09-18T11:08:29;5.65;;;2.50;;
15968;SDS011;8085;53.472;9.794;2023-09-18T11:10:59;6.13;;;2.53;;
15968;SDS011;8085;53.472;9.794;2023-09-18T11:13:30;7.90;;;2.25;;
15968;SDS011;8085;53.472;9.794;2023-09-18T11:16:00;6.03;;;2.15;;
15968;SDS011;8085;53.472;9.794;2023-09-18T11:18:41;9.43;;;2.63;;
15968;SDS011;8085;53.472;9.794;2023-09-18T11:21:09;6.05;;;2.15;;
15968;SDS011;8085;53.472;9.794;2023-09-18T11:23:38;5.88;;;2.20;;
15968;SDS011;8085;53.472;9.794;2023-09-18T11:28:35;5.05;;;2.20;;
15968;SDS011;8085;53.472;9.794;2023-09-18T11:31:03;7.00;;;2.80;;
15968;SDS011;8085;53.472;9.794;2023-09-18T11:33:35;6.82;;;2.53;;
15968;SDS011;8085;53.472;9.794;2023-09-18T11:36:05;9.98;;;2.67;;
15968;SDS011;8085;53.472;9.794;2023-09-18T11:38:50;10.27;;;2.17;;
15968;SDS011;8085;53.472;9.794;2023-09-18T11:41:24;8.65;;;2.20;;
15968;SDS011;8085;53.472;9.794;2023-09-18T11:43:52;7.35;;;2.15;;
15968;SDS011;8085;53.472;9.794;2023-09-18T11:49:11;4.25;;;2.00;;
15968;SDS011;8085;53.472;9.794;2023-09-18T11:51:40;10.43;;;2.40;;
15968;SDS011;8085;53.472;9.794;2023-09-18T11:54:07;6.78;;;2.20;;
15968;SDS011;8085;53.472;9.794;2023-09-18T11:56:35;6.53;;;1.90;;
15968;SDS011;8085;53.472;9.794;2023-09-18T11:59:05;10.25;;;2.10;;
15968;SDS011;8085;53.472;9.794;2023-09-18T12:01:33;8.27;;;2.40;;
15968;SDS011;8085;53.472;9.794;2023-09-18T12:04:01;5.60;;;1.90;;
15968;SDS011;8085;53.472;9.794;2023-09-18T12:06:32;6.85;;;2.33;;
15968;SDS011;8085;53.472;9.794;2023-09-18T12:09:01;10.13;;;1.83;;
15968;SDS011;8085;53.472;9.794;2023-09-18T12:11:28;4.93;;;1.98;;
15968;SDS011;8085;53.472;9.794;2023-09-18T12:13:55;5.43;;;1.95;;
15968;SDS011;8085;53.472;9.794;2023-09-18T12:16:23;8.25;;;1.90;;
15968;SDS011;8085;53.472;9.794;2023-09-18T12:18:50;7.60;;;1.85;;
15968;SDS011;8085;53.472;9.794;2023-09-18T12:21:17;5.38;;;1.98;;
15968;SDS011;8085;53.472;9.794;2023-09-18T12:23:44;8.27;;;2.15;;
15968;SDS011;8085;53.472;9.794;2023-09-18T12:26:14;8.07;;;2.17;;
15968;SDS011;8085;53.472;9.794;2023-09-18T12:28:43;5.18;;;1.88;;
15968;SDS011;8085;53.472;9.794;2023-09-18T12:31:11;6.40;;;1.95;;
15968;SDS011;8085;53.472;9.794;2023-09-18T12:33:39;5.65;;;1.73;;
15968;SDS011;8085;53.472;9.794;2023-09-18T12:36:07;5.10;;;1.67;;
15968;SDS011;8085;53.472;9.794;2023-09-18T12:38:34;4.63;;;1.55;;
15968;SDS011;8085;53.472;9.794;2023-09-18T12:41:02;5.82;;;1.70;;
15968;SDS011;8085;53.472;9.794;2023-09-18T12:43:34;4.80;;;1.55;;
15968;SDS011;8085;53.472;9.794;2023-09-18T12:46:04;6.82;;;1.70;;
15968;SDS011;8085;53.472;9.794;2023-09-18T12:48:31;7.28;;;2.13;;
15968;SDS011;8085;53.472;9.794;2023-09-18T12:51:02;9.40;;;1.80;;
15968;SDS011;8085;53.472;9.794;2023-09-18T12:53:30;2.97;;;1.50;;
15968;SDS011;8085;53.472;9.794;2023-09-18T12:56:04;10.45;;;1.90;;
15968;SDS011;8085;53.472;9.794;2023-09-18T12:58:32;4.78;;;1.88;;
15968;SDS011;8085;53.472;9.794;2023-09-18T13:01:03;5.30;;;1.50;;
15968;SDS011;8085;53.472;9.794;2023-09-18T13:03:33;5.47;;;1.65;;
15968;SDS011;8085;53.472;9.794;2023-09-18T13:06:08;6.93;;;1.42;;
15968;SDS011;8085;53.472;9.794;2023-09-18T13:08:35;4.25;;;1.40;;
15968;SDS011;8085;53.472;9.794;2023-09-18T13:11:02;3.20;;;1.40;;
15968;SDS011;8085;53.472;9.794;2023-09-18T13:13:29;5.15;;;1.63;;
15968;SDS011;8085;53.472;9.794;2023-09-18T13:15:57;4.43;;;1.60;;
15968;SDS011;8085;53.472;9.794;2023-09-18T13:18:26;6.32;;;1.73;;
15968;SDS011;8085;53.472;9.794;2023-09-18T13:20:53;9.68;;;1.85;;
15968;SDS011;8085;53.472;9.794;2023-09-18T13:23:20;4.82;;;1.73;;
15968;SDS011;8085;53.472;9.794;2023-09-18T13:25:58;3.20;;;1.50;;
15968;SDS011;8085;53.472;9.794;2023-09-18T13:28:25;9.32;;;2.00;;
15968;SDS011;8085;53.472;9.794;2023-09-18T13:30:52;3.88;;;1.50;;
15968;SDS011;8085;53.472;9.794;2023-09-18T13:33:20;5.05;;;1.75;;
15968;SDS011;8085;53.472;9.794;2023-09-18T13:35:48;3.40;;;1.63;;
15968;SDS011;8085;53.472;9.794;2023-09-18T13:38:15;7.80;;;1.70;;
15968;SDS011;8085;53.472;9.794;2023-09-18T13:40:44;2.80;;;1.52;;
15968;SDS011;8085;53.472;9.794;2023-09-18T13:43:12;8.45;;;1.73;;
15968;SDS011;8085;53.472;9.794;2023-09-18T13:45:41;3.67;;;1.77;;
15968;SDS011;8085;53.472;9.794;2023-09-18T13:48:08;8.25;;;1.65;;
15968;SDS011;8085;53.472;9.794;2023-09-18T13:50:36;6.53;;;1.83;;
15968;SDS011;8085;53.472;9.794;2023-09-18T13:53:05;8.18;;;1.98;;
15968;SDS011;8085;53.472;9.794;2023-09-18T13:55:32;4.22;;;1.80;;
15968;SDS011;8085;53.472;9.794;2023-09-18T13:58:00;5.03;;;1.95;;
15968;SDS011;8085;53.472;9.794;2023-09-18T14:00:28;7.32;;;1.98;;
15968;SDS011;8085;53.472;9.794;2023-09-18T14:02:55;5.13;;;1.70;;
15968;SDS011;8085;53.472;9.794;2023-09-18T14:05:21;5.97;;;1.65;;
15968;SDS011;8085;53.472;9.794;2023-09-18T14:07:48;4.88;;;1.55;;
15968;SDS011;8085;53.472;9.794;2023-09-18T14:10:17;4.57;;;1.67;;
15968;SDS011;8085;53.472;9.794;2023-09-18T14:12:46;4.63;;;1.90;;
15968;SDS011;8085;53.472;9.794;2023-09-18T14:15:13;9.25;;;1.75;;
15968;SDS011;8085;53.472;9.794;2023-09-18T14:17:40;5.78;;;1.63;;
15968;SDS011;8085;53.472;9.794;2023-09-18T14:20:07;5.40;;;1.70;;
15968;SDS011;8085;53.472;9.794;2023-09-18T14:22:35;2.97;;;1.52;;
15968;SDS011;8085;53.472;9.794;2023-09-18T14:25:03;4.50;;;1.80;;
15968;SDS011;8085;53.472;9.794;2023-09-18T14:27:32;6.40;;;1.65;;
15968;SDS011;8085;53.472;9.794;2023-09-18T14:30:00;7.45;;;1.75;;
15968;SDS011;8085;53.472;9.794;2023-09-18T14:32:31;4.15;;;1.52;;
15968;SDS011;8085;53.472;9.794;2023-09-18T14:34:58;4.47;;;1.73;;
15968;SDS011;8085;53.472;9.794;2023-09-18T14:37:27;2.50;;;1.67;;
15968;SDS011;8085;53.472;9.794;2023-09-18T14:39:54;4.95;;;1.55;;
15968;SDS011;8085;53.472;9.794;2023-09-18T14:42:21;7.25;;;1.60;;
15968;SDS011;8085;53.472;9.794;2023-09-18T14:44:50;2.60;;;1.40;;
15968;SDS011;8085;53.472;9.794;2023-09-18T14:47:16;6.35;;;1.60;;
15968;SDS011;8085;53.472;9.794;2023-09-18T14:49:43;3.92;;;1.38;;
15968;SDS011;8085;53.472;9.794;2023-09-18T14:52:11;3.92;;;1.48;;
15968;SDS011;8085;53.472;9.794;2023-09-18T14:54:38;5.00;;;1.70;;
15968;SDS011;8085;53.472;9.794;2023-09-18T14:57:06;4.38;;;1.50;;
15968;SDS011;8085;53.472;9.794;2023-09-18T14:59:33;2.88;;;1.42;;
15968;SDS011;8085;53.472;9.794;2023-09-18T15:02:01;2.95;;;1.40;;
15968;SDS011;8085;53.472;9.794;2023-09-18T15:04:28;4.40;;;1.42;;
15968;SDS011;8085;53.472;9.794;2023-09-18T15:06:55;4.90;;;1.20;;
15968;SDS011;8085;53.472;9.794;2023-09-18T15:09:22;3.40;;;1.45;;
15968;SDS011;8085;53.472;9.794;2023-09-18T15:11:49;5.30;;;1.30;;
15968;SDS011;8085;53.472;9.794;2023-09-18T15:14:16;4.82;;;1.80;;
15968;SDS011;8085;53.472;9.794;2023-09-18T15:16:43;5.03;;;1.55;;